Fairbanks Ft. Wainwright, AK

8:46 AM AKST on February 24, 2017 (GMT -0900)
Ladd Army Air Field | | Change Station

Elev 453 ft 64.84 °N, 147.62 °W | Updated 48 minutes ago

Overcast
Overcast
25 °F
Feels Like 25 °F
N
0
Wind Variable Wind from North

Today
High -- | Low -- °F
--% Chance of Precip.
Yesterday
High -- | Low -- °F
Precip. -- in
Pressure 30.22 in
Visibility 7.0 miles
Clouds Overcast 700 ft
Dew Point 24 °F
Humidity 96%
Rainfall 0.26 in
Snow Depth Not available.
8:15 AM 5:52 PM
Waning Crescent, 4% visible
METAR PAFB 241658Z 00000KT 7SM OVC007 M04/M05 A3019 RMK AO2A SLP233 T10411047
Pressure 30.22 in
Visibility 7.0 miles
Clouds Overcast 700 ft
Dew Point 24 °F
Humidity 96%
Rainfall 0.26 in
Snow Depth Not available.
8:15 AM 5:52 PM
Waning Crescent, 4% visible
METAR PAFB 241658Z 00000KT 7SM OVC007 M04/M05 A3019 RMK AO2A SLP233 T10411047

Get Your Daily Forecast Email!

Thanks for signing up!

Be on the lookout for a verification email in your inbox.

You'll start receiving the daily forecast at 8 AM.

×

10-Day Weather Forecast

Almanac

Astronomy

Feb. 24, 2017 Rise Set
Actual Time
Civil Twilight
Nautical Twilight
Astronomical Twilight
Moon
Length of Visible Light
Length of Day
Tomorrow will be .
, % of the Moon is Illuminated

Today's Extremes

State Highs State Lows

Community

WunderPhotos

Upload Photos

1,962,540 photos uploaded!

WunderBlog® & News

Nearby

Air Quality

  Air Quality AQ Index Pollutant
Not available.

Snow Depth

Station Depth Elevation

Earthquake Activity

City Distance Mag. Time & Date
Minimum magnitude displayed is 2.5.

Coastal Water Temperatures

Place Temperature

Stations

Nearby Weather Stations

Station Location Temp. Windchill Dew Point Humidity Wind Precip. Elev Updated Type
                   

Watches & Warnings

Winter Weather Advisory, Winter Storm Watch
Issued: 5:09 AM AKST Feb. 24, 2017 – National Weather Service

... Winter Weather Advisory remains in effect until noon akst
today...
... Winter Storm Watch remains in effect from Saturday afternoon
through Sunday morning...

* snow... additional snowfall of 1 to 2 inches through noon today.

* Timing... snow heavy at times will continue through noon today
with an additional 1 to 2 inches expected. Heavy snow
accumulations of 6 to 12 inches are expected with a second
storm on Saturday and Sunday.

* Impacts... visibility may be greatly reduced. Travel and
outdoor activities will be difficult.

Precautionary/preparedness actions...

A Winter Weather Advisory means that one or more winter weather
hazards are expected to cause travel difficulties.

A Winter Storm Watch means that there is a potential for one or
more significant winter weather hazards.